sensor_id;sensor_type;location;lat;lon;timestamp;P1;durP1;ratioP1;P2;durP2;ratioP2
63653;SDS011;49809;47.418;19.080;2022-12-24T00:02:06;23.08;;;9.90;;
63653;SDS011;49809;47.418;19.080;2022-12-24T00:06:05;26.67;;;8.15;;
63653;SDS011;49809;47.418;19.080;2022-12-24T00:09:32;19.87;;;9.75;;
63653;SDS011;49809;47.418;19.080;2022-12-24T00:13:05;21.35;;;9.25;;
63653;SDS011;49809;47.418;19.080;2022-12-24T00:16:17;15.48;;;8.30;;
63653;SDS011;49809;47.418;19.080;2022-12-24T00:19:21;25.50;;;9.73;;
63653;SDS011;49809;47.418;19.080;2022-12-24T00:22:49;14.73;;;7.82;;
63653;SDS011;49809;47.418;19.080;2022-12-24T00:25:54;22.27;;;9.73;;
63653;SDS011;49809;47.418;19.080;2022-12-24T00:29:01;22.98;;;9.13;;
63653;SDS011;49809;47.418;19.080;2022-12-24T00:32:06;18.05;;;8.10;;
63653;SDS011;49809;47.418;19.080;2022-12-24T00:35:35;24.92;;;9.05;;
63653;SDS011;49809;47.418;19.080;2022-12-24T00:38:41;21.87;;;9.52;;
63653;SDS011;49809;47.418;19.080;2022-12-24T00:41:52;23.62;;;9.73;;
63653;SDS011;49809;47.418;19.080;2022-12-24T00:44:58;22.10;;;9.87;;
63653;SDS011;49809;47.418;19.080;2022-12-24T00:48:21;18.90;;;7.90;;
63653;SDS011;49809;47.418;19.080;2022-12-24T00:51:29;24.12;;;9.48;;
63653;SDS011;49809;47.418;19.080;2022-12-24T00:54:41;22.85;;;9.38;;
63653;SDS011;49809;47.418;19.080;2022-12-24T00:57:49;20.52;;;9.63;;
63653;SDS011;49809;47.418;19.080;2022-12-24T01:01:12;25.12;;;9.50;;
63653;SDS011;49809;47.418;19.080;2022-12-24T01:04:37;22.52;;;9.25;;
63653;SDS011;49809;47.418;19.080;2022-12-24T01:08:19;17.90;;;8.07;;
63653;SDS011;49809;47.418;19.080;2022-12-24T01:11:43;19.37;;;8.90;;
63653;SDS011;49809;47.418;19.080;2022-12-24T01:15:09;22.13;;;9.60;;
63653;SDS011;49809;47.418;19.080;2022-12-24T01:18:34;21.73;;;10.65;;
63653;SDS011;49809;47.418;19.080;2022-12-24T01:21:57;28.23;;;11.75;;
63653;SDS011;49809;47.418;19.080;2022-12-24T01:28:48;18.37;;;7.30;;
63653;SDS011;49809;47.418;19.080;2022-12-24T01:31:53;18.35;;;9.15;;
63653;SDS011;49809;47.418;19.080;2022-12-24T01:34:58;20.88;;;8.70;;
63653;SDS011;49809;47.418;19.080;2022-12-24T01:38:06;23.90;;;10.32;;
63653;SDS011;49809;47.418;19.080;2022-12-24T01:41:34;26.05;;;10.73;;
63653;SDS011;49809;47.418;19.080;2022-12-24T01:49:23;27.30;;;10.27;;
63653;SDS011;49809;47.418;19.080;2022-12-24T01:52:32;22.62;;;8.95;;
63653;SDS011;49809;47.418;19.080;2022-12-24T01:55:39;28.35;;;11.50;;
63653;SDS011;49809;47.418;19.080;2022-12-24T01:58:47;20.85;;;10.02;;
63653;SDS011;49809;47.418;19.080;2022-12-24T02:01:57;22.42;;;9.65;;
63653;SDS011;49809;47.418;19.080;2022-12-24T02:05:07;15.50;;;8.85;;
63653;SDS011;49809;47.418;19.080;2022-12-24T02:08:37;22.20;;;9.23;;
63653;SDS011;49809;47.418;19.080;2022-12-24T02:12:04;33.33;;;11.73;;
63653;SDS011;49809;47.418;19.080;2022-12-24T02:15:11;29.02;;;10.40;;
63653;SDS011;49809;47.418;19.080;2022-12-24T02:18:25;26.37;;;11.32;;
63653;SDS011;49809;47.418;19.080;2022-12-24T02:25:40;23.27;;;10.25;;
63653;SDS011;49809;47.418;19.080;2022-12-24T02:32:57;16.85;;;9.07;;
63653;SDS011;49809;47.418;19.080;2022-12-24T02:36:34;26.83;;;11.45;;
63653;SDS011;49809;47.418;19.080;2022-12-24T02:39:50;22.45;;;9.40;;
63653;SDS011;49809;47.418;19.080;2022-12-24T02:43:09;23.62;;;9.38;;
63653;SDS011;49809;47.418;19.080;2022-12-24T02:46:21;18.20;;;9.43;;
63653;SDS011;49809;47.418;19.080;2022-12-24T02:49:48;19.70;;;9.43;;
63653;SDS011;49809;47.418;19.080;2022-12-24T02:52:52;18.55;;;9.45;;
63653;SDS011;49809;47.418;19.080;2022-12-24T03:00:01;17.35;;;8.50;;
63653;SDS011;49809;47.418;19.080;2022-12-24T03:04:10;19.58;;;9.80;;
63653;SDS011;49809;47.418;19.080;2022-12-24T03:08:01;13.80;;;7.77;;
63653;SDS011;49809;47.418;19.080;2022-12-24T03:11:13;20.73;;;9.25;;
63653;SDS011;49809;47.418;19.080;2022-12-24T03:14:17;25.92;;;10.68;;
63653;SDS011;49809;47.418;19.080;2022-12-24T03:17:23;20.65;;;9.77;;
63653;SDS011;49809;47.418;19.080;2022-12-24T03:20:36;20.90;;;8.80;;
63653;SDS011;49809;47.418;19.080;2022-12-24T03:23:48;17.25;;;10.00;;
63653;SDS011;49809;47.418;19.080;2022-12-24T03:26:52;17.55;;;9.18;;
63653;SDS011;49809;47.418;19.080;2022-12-24T03:29:56;17.87;;;8.88;;
63653;SDS011;49809;47.418;19.080;2022-12-24T03:33:01;18.62;;;9.55;;
63653;SDS011;49809;47.418;19.080;2022-12-24T03:36:05;19.05;;;9.07;;
63653;SDS011;49809;47.418;19.080;2022-12-24T03:39:10;17.02;;;8.48;;
63653;SDS011;49809;47.418;19.080;2022-12-24T03:42:15;16.92;;;9.10;;
63653;SDS011;49809;47.418;19.080;2022-12-24T03:45:20;16.12;;;8.60;;
63653;SDS011;49809;47.418;19.080;2022-12-24T03:48:25;15.93;;;9.18;;
63653;SDS011;49809;47.418;19.080;2022-12-24T03:51:34;15.30;;;8.52;;
63653;SDS011;49809;47.418;19.080;2022-12-24T03:54:38;17.00;;;8.30;;
63653;SDS011;49809;47.418;19.080;2022-12-24T03:58:02;16.27;;;8.45;;
63653;SDS011;49809;47.418;19.080;2022-12-24T04:01:06;18.73;;;9.85;;
63653;SDS011;49809;47.418;19.080;2022-12-24T04:04:14;15.18;;;8.32;;
63653;SDS011;49809;47.418;19.080;2022-12-24T04:07:17;17.98;;;9.07;;
63653;SDS011;49809;47.418;19.080;2022-12-24T04:10:26;17.77;;;9.15;;
63653;SDS011;49809;47.418;19.080;2022-12-24T04:13:30;18.42;;;9.20;;
63653;SDS011;49809;47.418;19.080;2022-12-24T04:16:37;18.27;;;9.23;;
63653;SDS011;49809;47.418;19.080;2022-12-24T04:19:45;17.75;;;9.23;;
63653;SDS011;49809;47.418;19.080;2022-12-24T04:22:49;21.58;;;9.98;;
63653;SDS011;49809;47.418;19.080;2022-12-24T04:25:57;21.85;;;9.80;;
63653;SDS011;49809;47.418;19.080;2022-12-24T04:29:06;16.35;;;9.82;;
63653;SDS011;49809;47.418;19.080;2022-12-24T04:32:10;16.55;;;9.20;;
63653;SDS011;49809;47.418;19.080;2022-12-24T04:35:20;26.83;;;11.00;;
63653;SDS011;49809;47.418;19.080;2022-12-24T04:38:23;17.20;;;9.00;;
63653;SDS011;49809;47.418;19.080;2022-12-24T04:41:28;17.62;;;9.23;;
63653;SDS011;49809;47.418;19.080;2022-12-24T04:44:51;17.17;;;10.32;;
63653;SDS011;49809;47.418;19.080;2022-12-24T04:47:55;24.05;;;11.20;;
63653;SDS011;49809;47.418;19.080;2022-12-24T04:51:00;23.48;;;10.20;;
63653;SDS011;49809;47.418;19.080;2022-12-24T04:54:06;21.15;;;10.60;;
63653;SDS011;49809;47.418;19.080;2022-12-24T04:57:10;15.30;;;9.48;;
63653;SDS011;49809;47.418;19.080;2022-12-24T05:00:14;14.87;;;9.73;;
63653;SDS011;49809;47.418;19.080;2022-12-24T05:03:18;21.10;;;11.35;;
63653;SDS011;49809;47.418;19.080;2022-12-24T05:06:28;24.17;;;10.32;;
63653;SDS011;49809;47.418;19.080;2022-12-24T05:09:33;22.13;;;10.45;;
63653;SDS011;49809;47.418;19.080;2022-12-24T05:12:38;19.50;;;9.27;;
63653;SDS011;49809;47.418;19.080;2022-12-24T05:15:43;17.58;;;9.15;;
63653;SDS011;49809;47.418;19.080;2022-12-24T05:18:48;18.67;;;10.00;;
63653;SDS011;49809;47.418;19.080;2022-12-24T05:21:51;20.50;;;9.95;;
63653;SDS011;49809;47.418;19.080;2022-12-24T05:25:13;16.00;;;9.07;;
63653;SDS011;49809;47.418;19.080;2022-12-24T05:28:35;21.73;;;10.35;;
63653;SDS011;49809;47.418;19.080;2022-12-24T05:31:40;19.67;;;10.40;;
63653;SDS011;49809;47.418;19.080;2022-12-24T05:34:47;21.90;;;10.25;;
63653;SDS011;49809;47.418;19.080;2022-12-24T05:37:56;23.30;;;10.02;;
63653;SDS011;49809;47.418;19.080;2022-12-24T05:41:21;22.37;;;12.48;;
63653;SDS011;49809;47.418;19.080;2022-12-24T05:44:25;21.10;;;10.15;;
63653;SDS011;49809;47.418;19.080;2022-12-24T05:47:31;22.73;;;12.03;;
63653;SDS011;49809;47.418;19.080;2022-12-24T05:50:43;19.87;;;10.20;;
63653;SDS011;49809;47.418;19.080;2022-12-24T05:53:47;21.27;;;10.38;;
63653;SDS011;49809;47.418;19.080;2022-12-24T05:56:51;27.10;;;10.98;;
63653;SDS011;49809;47.418;19.080;2022-12-24T05:59:56;21.30;;;10.68;;
63653;SDS011;49809;47.418;19.080;2022-12-24T06:03:00;19.35;;;10.75;;
63653;SDS011;49809;47.418;19.080;2022-12-24T06:06:09;21.77;;;11.45;;
63653;SDS011;49809;47.418;19.080;2022-12-24T06:09:15;20.98;;;10.10;;
63653;SDS011;49809;47.418;19.080;2022-12-24T06:12:19;21.45;;;12.05;;
63653;SDS011;49809;47.418;19.080;2022-12-24T06:15:43;25.23;;;10.50;;
63653;SDS011;49809;47.418;19.080;2022-12-24T06:18:48;19.50;;;11.07;;
63653;SDS011;49809;47.418;19.080;2022-12-24T06:21:52;20.42;;;9.43;;
63653;SDS011;49809;47.418;19.080;2022-12-24T06:24:56;20.52;;;9.98;;
63653;SDS011;49809;47.418;19.080;2022-12-24T06:28:00;21.02;;;10.48;;
63653;SDS011;49809;47.418;19.080;2022-12-24T06:31:04;21.50;;;11.50;;
63653;SDS011;49809;47.418;19.080;2022-12-24T06:34:08;26.48;;;12.73;;
63653;SDS011;49809;47.418;19.080;2022-12-24T06:37:12;22.13;;;10.73;;
63653;SDS011;49809;47.418;19.080;2022-12-24T06:40:19;20.12;;;10.00;;
63653;SDS011;49809;47.418;19.080;2022-12-24T06:43:24;14.45;;;9.50;;
63653;SDS011;49809;47.418;19.080;2022-12-24T06:46:27;21.45;;;10.20;;
63653;SDS011;49809;47.418;19.080;2022-12-24T06:49:32;21.58;;;10.13;;
63653;SDS011;49809;47.418;19.080;2022-12-24T06:52:35;21.30;;;11.25;;
63653;SDS011;49809;47.418;19.080;2022-12-24T06:55:39;15.38;;;8.45;;
63653;SDS011;49809;47.418;19.080;2022-12-24T06:59:05;19.90;;;10.18;;
63653;SDS011;49809;47.418;19.080;2022-12-24T07:02:13;23.98;;;10.23;;
63653;SDS011;49809;47.418;19.080;2022-12-24T07:05:16;17.37;;;10.27;;
63653;SDS011;49809;47.418;19.080;2022-12-24T07:08:20;23.25;;;11.32;;
63653;SDS011;49809;47.418;19.080;2022-12-24T07:11:27;18.67;;;9.77;;
63653;SDS011;49809;47.418;19.080;2022-12-24T07:14:30;19.37;;;9.90;;
63653;SDS011;49809;47.418;19.080;2022-12-24T07:17:34;23.08;;;10.45;;
63653;SDS011;49809;47.418;19.080;2022-12-24T07:20:38;22.33;;;11.10;;
63653;SDS011;49809;47.418;19.080;2022-12-24T07:23:41;18.02;;;9.98;;
63653;SDS011;49809;47.418;19.080;2022-12-24T07:26:45;22.37;;;11.00;;
63653;SDS011;49809;47.418;19.080;2022-12-24T07:29:50;22.17;;;11.52;;
63653;SDS011;49809;47.418;19.080;2022-12-24T07:32:54;25.52;;;12.00;;
63653;SDS011;49809;47.418;19.080;2022-12-24T07:35:58;23.33;;;12.02;;
63653;SDS011;49809;47.418;19.080;2022-12-24T07:39:11;20.60;;;11.18;;
63653;SDS011;49809;47.418;19.080;2022-12-24T07:42:15;23.92;;;12.65;;
63653;SDS011;49809;47.418;19.080;2022-12-24T07:45:18;27.10;;;13.68;;
63653;SDS011;49809;47.418;19.080;2022-12-24T07:48:26;22.45;;;13.18;;
63653;SDS011;49809;47.418;19.080;2022-12-24T07:51:31;19.52;;;11.75;;
63653;SDS011;49809;47.418;19.080;2022-12-24T07:54:34;32.60;;;11.93;;
63653;SDS011;49809;47.418;19.080;2022-12-24T07:57:38;20.15;;;10.90;;
63653;SDS011;49809;47.418;19.080;2022-12-24T08:00:43;20.05;;;10.27;;
63653;SDS011;49809;47.418;19.080;2022-12-24T08:03:47;25.75;;;11.55;;
63653;SDS011;49809;47.418;19.080;2022-12-24T08:06:53;21.60;;;11.90;;
63653;SDS011;49809;47.418;19.080;2022-12-24T08:09:57;20.00;;;10.98;;
63653;SDS011;49809;47.418;19.080;2022-12-24T08:13:04;23.45;;;11.45;;
63653;SDS011;49809;47.418;19.080;2022-12-24T08:16:07;20.60;;;11.12;;
63653;SDS011;49809;47.418;19.080;2022-12-24T08:19:11;22.05;;;10.55;;
63653;SDS011;49809;47.418;19.080;2022-12-24T08:22:16;22.40;;;11.90;;
63653;SDS011;49809;47.418;19.080;2022-12-24T08:25:19;21.25;;;11.30;;
63653;SDS011;49809;47.418;19.080;2022-12-24T08:28:24;25.17;;;12.13;;
63653;SDS011;49809;47.418;19.080;2022-12-24T08:31:53;23.30;;;11.52;;
63653;SDS011;49809;47.418;19.080;2022-12-24T08:34:58;20.25;;;11.27;;
63653;SDS011;49809;47.418;19.080;2022-12-24T08:38:06;22.40;;;12.50;;
63653;SDS011;49809;47.418;19.080;2022-12-24T08:44:34;23.05;;;12.20;;
63653;SDS011;49809;47.418;19.080;2022-12-24T08:47:45;16.85;;;9.50;;
63653;SDS011;49809;47.418;19.080;2022-12-24T08:51:16;8.55;;;5.10;;
63653;SDS011;49809;47.418;19.080;2022-12-24T08:54:22;11.00;;;4.37;;
63653;SDS011;49809;47.418;19.080;2022-12-24T08:57:40;2.12;;;1.92;;
63653;SDS011;49809;47.418;19.080;2022-12-24T09:00:43;2.28;;;1.55;;
63653;SDS011;49809;47.418;19.080;2022-12-24T09:03:47;3.35;;;1.48;;
63653;SDS011;49809;47.418;19.080;2022-12-24T09:06:50;2.28;;;1.52;;
63653;SDS011;49809;47.418;19.080;2022-12-24T09:09:56;2.87;;;1.75;;
63653;SDS011;49809;47.418;19.080;2022-12-24T09:13:28;4.32;;;2.35;;
63653;SDS011;49809;47.418;19.080;2022-12-24T09:16:33;3.80;;;1.75;;
63653;SDS011;49809;47.418;19.080;2022-12-24T09:19:36;2.83;;;2.20;;
63653;SDS011;49809;47.418;19.080;2022-12-24T09:23:21;5.43;;;2.05;;
63653;SDS011;49809;47.418;19.080;2022-12-24T09:26:25;3.90;;;2.00;;
63653;SDS011;49809;47.418;19.080;2022-12-24T09:29:31;2.37;;;1.58;;
63653;SDS011;49809;47.418;19.080;2022-12-24T09:32:41;4.15;;;1.70;;
63653;SDS011;49809;47.418;19.080;2022-12-24T09:35:52;3.10;;;2.00;;
63653;SDS011;49809;47.418;19.080;2022-12-24T09:39:11;5.40;;;2.28;;
63653;SDS011;49809;47.418;19.080;2022-12-24T09:46:12;4.40;;;2.08;;
63653;SDS011;49809;47.418;19.080;2022-12-24T09:49:56;5.15;;;2.35;;
63653;SDS011;49809;47.418;19.080;2022-12-24T09:53:04;1.95;;;1.40;;
63653;SDS011;49809;47.418;19.080;2022-12-24T09:56:19;1.65;;;1.45;;
63653;SDS011;49809;47.418;19.080;2022-12-24T09:59:48;4.28;;;1.80;;
63653;SDS011;49809;47.418;19.080;2022-12-24T10:02:51;2.40;;;1.75;;
63653;SDS011;49809;47.418;19.080;2022-12-24T10:09:18;2.17;;;1.17;;
63653;SDS011;49809;47.418;19.080;2022-12-24T10:19:34;1.95;;;1.40;;
63653;SDS011;49809;47.418;19.080;2022-12-24T10:29:56;1.85;;;1.17;;
63653;SDS011;49809;47.418;19.080;2022-12-24T10:33:09;1.75;;;1.20;;
63653;SDS011;49809;47.418;19.080;2022-12-24T10:36:31;2.80;;;1.20;;
63653;SDS011;49809;47.418;19.080;2022-12-24T10:39:42;3.87;;;1.40;;
63653;SDS011;49809;47.418;19.080;2022-12-24T10:42:46;3.72;;;1.30;;
63653;SDS011;49809;47.418;19.080;2022-12-24T10:45:56;2.12;;;1.37;;
63653;SDS011;49809;47.418;19.080;2022-12-24T10:49:07;3.05;;;1.92;;
63653;SDS011;49809;47.418;19.080;2022-12-24T10:52:20;2.45;;;1.55;;
63653;SDS011;49809;47.418;19.080;2022-12-24T10:55:32;2.58;;;1.48;;
63653;SDS011;49809;47.418;19.080;2022-12-24T10:58:35;2.80;;;1.23;;
63653;SDS011;49809;47.418;19.080;2022-12-24T11:01:46;2.28;;;1.50;;
63653;SDS011;49809;47.418;19.080;2022-12-24T11:04:52;2.42;;;1.35;;
63653;SDS011;49809;47.418;19.080;2022-12-24T11:11:04;3.90;;;2.25;;
63653;SDS011;49809;47.418;19.080;2022-12-24T11:14:14;1.85;;;1.33;;
63653;SDS011;49809;47.418;19.080;2022-12-24T11:17:39;0.82;;;0.80;;
63653;SDS011;49809;47.418;19.080;2022-12-24T11:20:45;1.87;;;0.80;;
63653;SDS011;49809;47.418;19.080;2022-12-24T11:24:22;2.35;;;1.00;;
63653;SDS011;49809;47.418;19.080;2022-12-24T11:31:18;4.60;;;0.88;;
63653;SDS011;49809;47.418;19.080;2022-12-24T11:34:29;3.42;;;1.00;;
63653;SDS011;49809;47.418;19.080;2022-12-24T11:37:34;1.75;;;0.73;;
63653;SDS011;49809;47.418;19.080;2022-12-24T11:40:41;1.08;;;0.70;;
63653;SDS011;49809;47.418;19.080;2022-12-24T11:43:59;2.70;;;0.85;;
63653;SDS011;49809;47.418;19.080;2022-12-24T11:47:09;1.00;;;0.77;;
63653;SDS011;49809;47.418;19.080;2022-12-24T11:50:26;3.95;;;1.00;;
63653;SDS011;49809;47.418;19.080;2022-12-24T11:53:40;1.50;;;0.80;;
63653;SDS011;49809;47.418;19.080;2022-12-24T11:57:09;2.20;;;0.80;;
63653;SDS011;49809;47.418;19.080;2022-12-24T12:03:31;4.90;;;0.80;;
63653;SDS011;49809;47.418;19.080;2022-12-24T12:07:05;2.05;;;0.80;;
63653;SDS011;49809;47.418;19.080;2022-12-24T12:10:32;2.62;;;1.20;;
63653;SDS011;49809;47.418;19.080;2022-12-24T12:14:24;0.82;;;0.60;;
63653;SDS011;49809;47.418;19.080;2022-12-24T12:21:35;1.95;;;0.70;;
63653;SDS011;49809;47.418;19.080;2022-12-24T12:24:52;1.42;;;0.57;;
63653;SDS011;49809;47.418;19.080;2022-12-24T12:28:05;1.05;;;0.57;;
63653;SDS011;49809;47.418;19.080;2022-12-24T12:38:18;0.95;;;0.45;;
63653;SDS011;49809;47.418;19.080;2022-12-24T12:59:16;1.45;;;0.62;;
63653;SDS011;49809;47.418;19.080;2022-12-24T13:20:54;1.35;;;0.80;;
63653;SDS011;49809;47.418;19.080;2022-12-24T13:24:19;0.60;;;0.60;;
63653;SDS011;49809;47.418;19.080;2022-12-24T13:27:29;1.20;;;0.68;;
63653;SDS011;49809;47.418;19.080;2022-12-24T13:30:39;0.57;;;0.50;;
63653;SDS011;49809;47.418;19.080;2022-12-24T13:34:05;0.60;;;0.50;;
63653;SDS011;49809;47.418;19.080;2022-12-24T13:37:39;2.05;;;0.50;;
63653;SDS011;49809;47.418;19.080;2022-12-24T13:42:05;2.95;;;0.80;;
63653;SDS011;49809;47.418;19.080;2022-12-24T13:44:46;1.35;;;0.70;;
63653;SDS011;49809;47.418;19.080;2022-12-24T13:51:34;0.77;;;0.60;;
63653;SDS011;49809;47.418;19.080;2022-12-24T13:54:40;0.77;;;0.40;;
63653;SDS011;49809;47.418;19.080;2022-12-24T13:58:04;5.03;;;0.77;;
63653;SDS011;49809;47.418;19.080;2022-12-24T14:01:10;4.43;;;0.77;;
63653;SDS011;49809;47.418;19.080;2022-12-24T14:04:23;2.67;;;0.50;;
63653;SDS011;49809;47.418;19.080;2022-12-24T14:07:33;2.67;;;0.70;;
63653;SDS011;49809;47.418;19.080;2022-12-24T14:10:44;2.70;;;0.80;;
63653;SDS011;49809;47.418;19.080;2022-12-24T14:14:40;1.80;;;1.10;;
63653;SDS011;49809;47.418;19.080;2022-12-24T14:17:46;3.10;;;1.10;;
63653;SDS011;49809;47.418;19.080;2022-12-24T14:20:53;4.33;;;1.07;;
63653;SDS011;49809;47.418;19.080;2022-12-24T14:24:13;3.62;;;0.75;;
63653;SDS011;49809;47.418;19.080;2022-12-24T14:27:42;0.60;;;0.45;;
63653;SDS011;49809;47.418;19.080;2022-12-24T14:31:00;1.20;;;0.68;;
63653;SDS011;49809;47.418;19.080;2022-12-24T14:34:26;1.40;;;0.73;;
63653;SDS011;49809;47.418;19.080;2022-12-24T14:38:05;2.33;;;1.00;;
63653;SDS011;49809;47.418;19.080;2022-12-24T14:41:17;1.27;;;0.90;;
63653;SDS011;49809;47.418;19.080;2022-12-24T14:51:37;3.30;;;1.40;;
63653;SDS011;49809;47.418;19.080;2022-12-24T14:54:44;2.08;;;1.15;;
63653;SDS011;49809;47.418;19.080;2022-12-24T15:01:32;2.58;;;1.52;;
63653;SDS011;49809;47.418;19.080;2022-12-24T15:04:41;2.58;;;1.37;;
63653;SDS011;49809;47.418;19.080;2022-12-24T15:08:07;2.65;;;1.50;;
63653;SDS011;49809;47.418;19.080;2022-12-24T15:11:37;2.97;;;1.17;;
63653;SDS011;49809;47.418;19.080;2022-12-24T15:14:41;4.00;;;1.00;;
63653;SDS011;49809;47.418;19.080;2022-12-24T15:17:46;1.55;;;1.30;;
63653;SDS011;49809;47.418;19.080;2022-12-24T15:20:51;1.23;;;1.12;;
63653;SDS011;49809;47.418;19.080;2022-12-24T15:24:33;3.92;;;1.08;;
63653;SDS011;49809;47.418;19.080;2022-12-24T15:27:41;8.25;;;1.48;;
63653;SDS011;49809;47.418;19.080;2022-12-24T15:34:43;4.45;;;1.62;;
63653;SDS011;49809;47.418;19.080;2022-12-24T15:41:56;2.65;;;1.75;;
63653;SDS011;49809;47.418;19.080;2022-12-24T15:45:18;4.30;;;0.90;;
63653;SDS011;49809;47.418;19.080;2022-12-24T15:49:12;1.83;;;1.20;;
63653;SDS011;49809;47.418;19.080;2022-12-24T15:52:26;1.73;;;0.95;;
63653;SDS011;49809;47.418;19.080;2022-12-24T15:55:38;2.20;;;0.98;;
63653;SDS011;49809;47.418;19.080;2022-12-24T15:59:09;1.70;;;1.02;;
63653;SDS011;49809;47.418;19.080;2022-12-24T16:02:45;2.35;;;1.05;;
63653;SDS011;49809;47.418;19.080;2022-12-24T16:06:03;1.33;;;1.00;;
63653;SDS011;49809;47.418;19.080;2022-12-24T16:09:31;4.32;;;0.90;;
63653;SDS011;49809;47.418;19.080;2022-12-24T16:12:43;2.60;;;0.90;;
63653;SDS011;49809;47.418;19.080;2022-12-24T16:15:51;2.00;;;1.37;;
63653;SDS011;49809;47.418;19.080;2022-12-24T16:22:08;1.73;;;1.12;;
63653;SDS011;49809;47.418;19.080;2022-12-24T16:25:36;3.67;;;1.65;;
63653;SDS011;49809;47.418;19.080;2022-12-24T16:28:47;9.23;;;1.30;;
63653;SDS011;49809;47.418;19.080;2022-12-24T16:32:34;2.30;;;1.37;;
63653;SDS011;49809;47.418;19.080;2022-12-24T16:35:40;2.70;;;1.33;;
63653;SDS011;49809;47.418;19.080;2022-12-24T16:38:47;1.62;;;1.20;;
63653;SDS011;49809;47.418;19.080;2022-12-24T16:42:10;1.65;;;1.25;;
63653;SDS011;49809;47.418;19.080;2022-12-24T16:46:04;1.62;;;0.80;;
63653;SDS011;49809;47.418;19.080;2022-12-24T16:49:34;2.42;;;1.23;;
63653;SDS011;49809;47.418;19.080;2022-12-24T16:53:10;3.25;;;1.67;;
63653;SDS011;49809;47.418;19.080;2022-12-24T16:56:36;3.15;;;1.90;;
63653;SDS011;49809;47.418;19.080;2022-12-24T17:00:22;5.05;;;2.05;;
63653;SDS011;49809;47.418;19.080;2022-12-24T17:03:28;4.18;;;2.20;;
63653;SDS011;49809;47.418;19.080;2022-12-24T17:10:49;3.75;;;1.50;;
63653;SDS011;49809;47.418;19.080;2022-12-24T17:13:54;3.95;;;2.35;;
63653;SDS011;49809;47.418;19.080;2022-12-24T17:20:30;6.80;;;3.53;;
63653;SDS011;49809;47.418;19.080;2022-12-24T17:23:53;18.90;;;7.78;;
63653;SDS011;49809;47.418;19.080;2022-12-24T17:26:57;16.10;;;6.97;;
63653;SDS011;49809;47.418;19.080;2022-12-24T17:30:01;14.77;;;7.00;;
63653;SDS011;49809;47.418;19.080;2022-12-24T17:33:04;13.48;;;6.37;;
63653;SDS011;49809;47.418;19.080;2022-12-24T17:39:28;13.50;;;6.53;;
63653;SDS011;49809;47.418;19.080;2022-12-24T17:43:02;12.23;;;5.43;;
63653;SDS011;49809;47.418;19.080;2022-12-24T17:46:12;11.30;;;6.15;;
63653;SDS011;49809;47.418;19.080;2022-12-24T17:49:18;10.15;;;6.78;;
63653;SDS011;49809;47.418;19.080;2022-12-24T17:52:30;12.32;;;7.12;;
63653;SDS011;49809;47.418;19.080;2022-12-24T17:55:33;10.35;;;6.65;;
63653;SDS011;49809;47.418;19.080;2022-12-24T17:58:44;11.38;;;6.72;;
63653;SDS011;49809;47.418;19.080;2022-12-24T18:01:51;11.70;;;6.05;;
63653;SDS011;49809;47.418;19.080;2022-12-24T18:05:01;12.45;;;6.82;;
63653;SDS011;49809;47.418;19.080;2022-12-24T18:08:05;10.15;;;5.85;;
63653;SDS011;49809;47.418;19.080;2022-12-24T18:11:14;15.50;;;6.05;;
63653;SDS011;49809;47.418;19.080;2022-12-24T18:14:24;24.63;;;9.38;;
63653;SDS011;49809;47.418;19.080;2022-12-24T18:17:34;26.05;;;9.88;;
63653;SDS011;49809;47.418;19.080;2022-12-24T18:20:39;20.95;;;10.77;;
63653;SDS011;49809;47.418;19.080;2022-12-24T18:24:29;22.92;;;11.07;;
63653;SDS011;49809;47.418;19.080;2022-12-24T18:27:38;20.55;;;9.50;;
63653;SDS011;49809;47.418;19.080;2022-12-24T18:31:16;18.92;;;9.77;;
63653;SDS011;49809;47.418;19.080;2022-12-24T18:34:21;21.15;;;9.00;;
63653;SDS011;49809;47.418;19.080;2022-12-24T18:37:34;27.10;;;8.98;;
63653;SDS011;49809;47.418;19.080;2022-12-24T18:40:45;15.75;;;8.38;;
63653;SDS011;49809;47.418;19.080;2022-12-24T18:43:54;15.25;;;8.35;;
63653;SDS011;49809;47.418;19.080;2022-12-24T18:47:26;17.50;;;7.68;;
63653;SDS011;49809;47.418;19.080;2022-12-24T18:50:52;21.20;;;8.75;;
63653;SDS011;49809;47.418;19.080;2022-12-24T18:53:57;14.87;;;7.70;;
63653;SDS011;49809;47.418;19.080;2022-12-24T18:57:38;15.52;;;9.18;;
63653;SDS011;49809;47.418;19.080;2022-12-24T19:01:28;19.15;;;10.30;;
63653;SDS011;49809;47.418;19.080;2022-12-24T19:05:04;21.35;;;9.25;;
63653;SDS011;49809;47.418;19.080;2022-12-24T19:08:30;15.10;;;8.48;;
63653;SDS011;49809;47.418;19.080;2022-12-24T19:12:14;20.08;;;8.68;;
63653;SDS011;49809;47.418;19.080;2022-12-24T19:16:16;14.32;;;7.15;;
63653;SDS011;49809;47.418;19.080;2022-12-24T19:20:13;14.85;;;7.85;;
63653;SDS011;49809;47.418;19.080;2022-12-24T19:23:17;21.12;;;7.82;;
63653;SDS011;49809;47.418;19.080;2022-12-24T19:26:23;15.20;;;8.02;;
63653;SDS011;49809;47.418;19.080;2022-12-24T19:29:54;11.23;;;6.20;;
63653;SDS011;49809;47.418;19.080;2022-12-24T19:32:57;8.98;;;6.10;;
63653;SDS011;49809;47.418;19.080;2022-12-24T19:36:12;15.02;;;6.90;;
63653;SDS011;49809;47.418;19.080;2022-12-24T19:39:22;13.07;;;6.28;;
63653;SDS011;49809;47.418;19.080;2022-12-24T19:43:06;21.40;;;7.20;;
63653;SDS011;49809;47.418;19.080;2022-12-24T19:46:15;17.87;;;7.05;;
63653;SDS011;49809;47.418;19.080;2022-12-24T19:52:36;14.98;;;7.20;;
63653;SDS011;49809;47.418;19.080;2022-12-24T19:55:59;12.48;;;7.00;;
63653;SDS011;49809;47.418;19.080;2022-12-24T19:59:04;12.88;;;5.57;;
63653;SDS011;49809;47.418;19.080;2022-12-24T20:02:08;9.73;;;5.20;;
63653;SDS011;49809;47.418;19.080;2022-12-24T20:05:15;11.30;;;6.68;;
63653;SDS011;49809;47.418;19.080;2022-12-24T20:08:21;11.05;;;5.40;;
63653;SDS011;49809;47.418;19.080;2022-12-24T20:11:26;11.12;;;6.35;;
63653;SDS011;49809;47.418;19.080;2022-12-24T20:14:34;9.95;;;5.97;;
63653;SDS011;49809;47.418;19.080;2022-12-24T20:17:59;9.70;;;6.78;;
63653;SDS011;49809;47.418;19.080;2022-12-24T20:21:03;13.38;;;9.10;;
63653;SDS011;49809;47.418;19.080;2022-12-24T20:24:34;14.87;;;9.55;;
63653;SDS011;49809;47.418;19.080;2022-12-24T20:27:57;14.60;;;7.00;;
63653;SDS011;49809;47.418;19.080;2022-12-24T20:31:15;14.85;;;8.45;;
63653;SDS011;49809;47.418;19.080;2022-12-24T20:34:50;11.35;;;6.22;;
63653;SDS011;49809;47.418;19.080;2022-12-24T20:37:54;14.70;;;7.03;;
63653;SDS011;49809;47.418;19.080;2022-12-24T20:41:18;11.82;;;5.80;;
63653;SDS011;49809;47.418;19.080;2022-12-24T20:44:23;9.82;;;6.37;;
63653;SDS011;49809;47.418;19.080;2022-12-24T20:47:27;16.85;;;7.78;;
63653;SDS011;49809;47.418;19.080;2022-12-24T20:50:32;8.55;;;5.72;;
63653;SDS011;49809;47.418;19.080;2022-12-24T20:53:36;9.70;;;5.28;;
63653;SDS011;49809;47.418;19.080;2022-12-24T20:56:43;9.65;;;5.57;;
63653;SDS011;49809;47.418;19.080;2022-12-24T21:00:01;8.90;;;5.10;;
63653;SDS011;49809;47.418;19.080;2022-12-24T21:03:05;12.30;;;6.60;;
63653;SDS011;49809;47.418;19.080;2022-12-24T21:06:09;10.23;;;5.60;;
63653;SDS011;49809;47.418;19.080;2022-12-24T21:09:16;13.80;;;6.50;;
63653;SDS011;49809;47.418;19.080;2022-12-24T21:12:19;9.80;;;6.68;;
63653;SDS011;49809;47.418;19.080;2022-12-24T21:15:42;13.00;;;6.47;;
63653;SDS011;49809;47.418;19.080;2022-12-24T21:18:48;10.68;;;6.00;;